Dom Pedro, Brazil
Current Conditions -  °F | °C
As of 12:00 PM on Monday 29 Dec 2014 (Local Time) from SBTE Reporting Station
Scattered Clouds Scattered Clouds  
Wind Chill: 91°   Ceiling: Unl
Heat Index: 94°   Visibility: 6mi
Dew Point: 66°   Wind: 7mph
Humidity: 43%   Direction: 140°SE
Pressure: 29.91"   Gusts: NA
Location:  5.03°S, 44.44°W
Report Text: SBTE 291500Z 14006KT 9999 SCT030 33/19 Q1013
Loading
Personal Weather Stations






























Interactive Weather Map New forecast layout! Learn more

10-Day Weather Forecast

Advertisements
Track Severe Weather on mobile